sensor_id;sensor_type;location;lat;lon;timestamp;temperature;humidity
70271;SHT31;57680;54.292;18.598;2023-07-24T00:01:02;15.37;95.65
70271;SHT31;57680;54.292;18.598;2023-07-24T00:03:27;15.32;95.91
70271;SHT31;57680;54.292;18.598;2023-07-24T00:05:53;15.32;96.06
70271;SHT31;57680;54.292;18.598;2023-07-24T00:08:18;15.32;96.10
70271;SHT31;57680;54.292;18.598;2023-07-24T00:10:44;15.34;96.21
70271;SHT31;57680;54.292;18.598;2023-07-24T00:13:09;15.33;96.13
70271;SHT31;57680;54.292;18.598;2023-07-24T00:15:35;15.33;96.16
70271;SHT31;57680;54.292;18.598;2023-07-24T00:18:00;15.34;96.12
70271;SHT31;57680;54.292;18.598;2023-07-24T00:20:25;15.37;96.12
70271;SHT31;57680;54.292;18.598;2023-07-24T00:22:51;15.33;96.02
70271;SHT31;57680;54.292;18.598;2023-07-24T00:25:16;15.32;96.18
70271;SHT31;57680;54.292;18.598;2023-07-24T00:27:42;15.30;96.29
70271;SHT31;57680;54.292;18.598;2023-07-24T00:30:07;15.27;96.36
70271;SHT31;57680;54.292;18.598;2023-07-24T00:32:33;15.26;96.60
70271;SHT31;57680;54.292;18.598;2023-07-24T00:34:58;15.27;96.68
70271;SHT31;57680;54.292;18.598;2023-07-24T00:37:24;15.26;96.70
70271;SHT31;57680;54.292;18.598;2023-07-24T00:39:49;15.20;96.90
70271;SHT31;57680;54.292;18.598;2023-07-24T00:42:15;15.14;96.92
70271;SHT31;57680;54.292;18.598;2023-07-24T00:44:40;15.09;97.25
70271;SHT31;57680;54.292;18.598;2023-07-24T00:47:05;15.06;97.57
70271;SHT31;57680;54.292;18.598;2023-07-24T00:49:31;15.07;97.94
70271;SHT31;57680;54.292;18.598;2023-07-24T00:51:56;15.07;98.16
70271;SHT31;57680;54.292;18.598;2023-07-24T00:54:22;15.07;98.25
70271;SHT31;57680;54.292;18.598;2023-07-24T00:56:48;15.07;98.30
70271;SHT31;57680;54.292;18.598;2023-07-24T00:59:14;15.07;98.36
70271;SHT31;57680;54.292;18.598;2023-07-24T01:01:42;15.03;98.26
70271;SHT31;57680;54.292;18.598;2023-07-24T01:04:07;15.02;98.21
70271;SHT31;57680;54.292;18.598;2023-07-24T01:06:33;14.99;98.18
70271;SHT31;57680;54.292;18.598;2023-07-24T01:08:58;14.93;98.14
70271;SHT31;57680;54.292;18.598;2023-07-24T01:11:30;14.85;97.90
70271;SHT31;57680;54.292;18.598;2023-07-24T01:14:13;14.83;98.13
70271;SHT31;57680;54.292;18.598;2023-07-24T01:16:42;14.76;98.17
70271;SHT31;57680;54.292;18.598;2023-07-24T01:19:35;14.72;97.96
70271;SHT31;57680;54.292;18.598;2023-07-24T01:22:24;14.65;97.89
70271;SHT31;57680;54.292;18.598;2023-07-24T01:25:27;14.60;97.97
70271;SHT31;57680;54.292;18.598;2023-07-24T01:27:53;14.57;98.02
70271;SHT31;57680;54.292;18.598;2023-07-24T01:30:19;14.52;98.08
70271;SHT31;57680;54.292;18.598;2023-07-24T01:32:45;14.55;98.45
70271;SHT31;57680;54.292;18.598;2023-07-24T01:35:10;14.54;98.91
70271;SHT31;57680;54.292;18.598;2023-07-24T01:37:37;14.57;98.93
70271;SHT31;57680;54.292;18.598;2023-07-24T01:40:03;14.55;99.06
70271;SHT31;57680;54.292;18.598;2023-07-24T01:42:29;14.60;99.04
70271;SHT31;57680;54.292;18.598;2023-07-24T01:44:55;14.58;99.01
70271;SHT31;57680;54.292;18.598;2023-07-24T01:47:21;14.55;98.93
70271;SHT31;57680;54.292;18.598;2023-07-24T01:49:46;14.52;98.84
70271;SHT31;57680;54.292;18.598;2023-07-24T01:52:12;14.44;98.85
70271;SHT31;57680;54.292;18.598;2023-07-24T01:54:37;14.42;98.99
70271;SHT31;57680;54.292;18.598;2023-07-24T01:57:03;14.37;98.93
70271;SHT31;57680;54.292;18.598;2023-07-24T01:59:28;14.30;99.03
70271;SHT31;57680;54.292;18.598;2023-07-24T02:01:53;14.27;99.16
70271;SHT31;57680;54.292;18.598;2023-07-24T02:04:19;14.25;99.20
70271;SHT31;57680;54.292;18.598;2023-07-24T02:06:44;14.21;99.04
70271;SHT31;57680;54.292;18.598;2023-07-24T02:09:10;14.16;98.87
70271;SHT31;57680;54.292;18.598;2023-07-24T02:11:35;14.07;98.89
70271;SHT31;57680;54.292;18.598;2023-07-24T02:14:01;14.04;98.84
70271;SHT31;57680;54.292;18.598;2023-07-24T02:16:26;14.00;98.86
70271;SHT31;57680;54.292;18.598;2023-07-24T02:18:51;13.99;99.05
70271;SHT31;57680;54.292;18.598;2023-07-24T02:21:17;14.02;99.33
70271;SHT31;57680;54.292;18.598;2023-07-24T02:23:42;14.03;99.42
70271;SHT31;57680;54.292;18.598;2023-07-24T02:26:08;14.04;99.48
70271;SHT31;57680;54.292;18.598;2023-07-24T02:28:33;14.07;99.41
70271;SHT31;57680;54.292;18.598;2023-07-24T02:30:58;14.10;99.43
70271;SHT31;57680;54.292;18.598;2023-07-24T02:33:23;14.09;99.45
70271;SHT31;57680;54.292;18.598;2023-07-24T02:35:51;14.10;99.37
70271;SHT31;57680;54.292;18.598;2023-07-24T02:38:17;14.13;99.40
70271;SHT31;57680;54.292;18.598;2023-07-24T02:40:44;14.13;99.36
70271;SHT31;57680;54.292;18.598;2023-07-24T02:43:09;14.14;99.40
70271;SHT31;57680;54.292;18.598;2023-07-24T02:45:35;14.12;99.31
70271;SHT31;57680;54.292;18.598;2023-07-24T02:48:00;14.12;99.24
70271;SHT31;57680;54.292;18.598;2023-07-24T02:50:26;14.09;99.04
70271;SHT31;57680;54.292;18.598;2023-07-24T02:52:51;14.12;99.09
70271;SHT31;57680;54.292;18.598;2023-07-24T02:55:17;14.10;99.15
70271;SHT31;57680;54.292;18.598;2023-07-24T02:57:42;14.10;99.20
70271;SHT31;57680;54.292;18.598;2023-07-24T03:00:08;14.12;99.20
70271;SHT31;57680;54.292;18.598;2023-07-24T03:02:33;14.14;99.33
70271;SHT31;57680;54.292;18.598;2023-07-24T03:04:58;14.18;99.36
70271;SHT31;57680;54.292;18.598;2023-07-24T03:07:24;14.23;99.48
70271;SHT31;57680;54.292;18.598;2023-07-24T03:09:51;14.28;99.52
70271;SHT31;57680;54.292;18.598;2023-07-24T03:12:16;14.35;99.57
70271;SHT31;57680;54.292;18.598;2023-07-24T03:14:41;14.40;99.47
70271;SHT31;57680;54.292;18.598;2023-07-24T03:17:07;14.44;99.47
70271;SHT31;57680;54.292;18.598;2023-07-24T03:19:32;14.52;99.42
70271;SHT31;57680;54.292;18.598;2023-07-24T03:21:57;14.60;99.31
70271;SHT31;57680;54.292;18.598;2023-07-24T03:24:23;14.68;99.08
70271;SHT31;57680;54.292;18.598;2023-07-24T03:26:48;14.71;99.06
70271;SHT31;57680;54.292;18.598;2023-07-24T03:29:13;14.78;98.90
70271;SHT31;57680;54.292;18.598;2023-07-24T03:31:39;14.82;98.82
70271;SHT31;57680;54.292;18.598;2023-07-24T03:34:04;14.89;98.60
70271;SHT31;57680;54.292;18.598;2023-07-24T03:36:29;14.93;98.27
70271;SHT31;57680;54.292;18.598;2023-07-24T03:38:55;15.02;97.99
70271;SHT31;57680;54.292;18.598;2023-07-24T03:41:20;15.03;97.67
70271;SHT31;57680;54.292;18.598;2023-07-24T03:43:45;15.06;97.32
70271;SHT31;57680;54.292;18.598;2023-07-24T03:46:11;15.10;97.40
70271;SHT31;57680;54.292;18.598;2023-07-24T03:48:36;15.12;97.14
70271;SHT31;57680;54.292;18.598;2023-07-24T03:51:02;15.13;97.00
70271;SHT31;57680;54.292;18.598;2023-07-24T03:53:28;15.20;96.80
70271;SHT31;57680;54.292;18.598;2023-07-24T03:55:54;15.24;96.33
70271;SHT31;57680;54.292;18.598;2023-07-24T03:58:19;15.33;96.16
70271;SHT31;57680;54.292;18.598;2023-07-24T04:00:45;15.36;95.88
70271;SHT31;57680;54.292;18.598;2023-07-24T04:03:10;15.46;95.45
70271;SHT31;57680;54.292;18.598;2023-07-24T04:05:36;15.61;95.21
70271;SHT31;57680;54.292;18.598;2023-07-24T04:08:02;16.29;93.36
70271;SHT31;57680;54.292;18.598;2023-07-24T04:10:27;16.79;91.59
70271;SHT31;57680;54.292;18.598;2023-07-24T04:12:53;16.77;90.96
70271;SHT31;57680;54.292;18.598;2023-07-24T04:15:18;17.51;89.50
70271;SHT31;57680;54.292;18.598;2023-07-24T04:17:43;18.10;86.59
70271;SHT31;57680;54.292;18.598;2023-07-24T04:20:09;18.50;85.76
70271;SHT31;57680;54.292;18.598;2023-07-24T04:22:35;18.64;83.47
70271;SHT31;57680;54.292;18.598;2023-07-24T04:25:00;19.53;81.59
70271;SHT31;57680;54.292;18.598;2023-07-24T04:27:25;19.69;78.98
70271;SHT31;57680;54.292;18.598;2023-07-24T04:29:51;20.01;77.38
70271;SHT31;57680;54.292;18.598;2023-07-24T04:32:16;20.28;77.01
70271;SHT31;57680;54.292;18.598;2023-07-24T04:34:41;20.31;75.82
70271;SHT31;57680;54.292;18.598;2023-07-24T04:37:07;20.31;76.47
70271;SHT31;57680;54.292;18.598;2023-07-24T04:39:32;20.86;74.69
70271;SHT31;57680;54.292;18.598;2023-07-24T04:41:57;21.42;73.07
70271;SHT31;57680;54.292;18.598;2023-07-24T04:44:23;22.06;72.15
70271;SHT31;57680;54.292;18.598;2023-07-24T04:46:48;22.46;69.99
70271;SHT31;57680;54.292;18.598;2023-07-24T04:49:14;22.98;68.81
70271;SHT31;57680;54.292;18.598;2023-07-24T04:51:39;22.88;67.01
70271;SHT31;57680;54.292;18.598;2023-07-24T04:54:04;22.71;69.26
70271;SHT31;57680;54.292;18.598;2023-07-24T04:56:29;22.50;69.95
70271;SHT31;57680;54.292;18.598;2023-07-24T04:58:55;22.17;69.56
70271;SHT31;57680;54.292;18.598;2023-07-24T05:01:20;21.92;71.02
70271;SHT31;57680;54.292;18.598;2023-07-24T05:03:45;21.92;71.82
70271;SHT31;57680;54.292;18.598;2023-07-24T05:06:11;21.77;70.82
70271;SHT31;57680;54.292;18.598;2023-07-24T05:08:36;21.55;71.68
70271;SHT31;57680;54.292;18.598;2023-07-24T05:11:01;21.27;73.32
70271;SHT31;57680;54.292;18.598;2023-07-24T05:13:27;21.01;74.85
70271;SHT31;57680;54.292;18.598;2023-07-24T05:15:52;20.62;75.02
70271;SHT31;57680;54.292;18.598;2023-07-24T05:18:18;20.42;76.26
70271;SHT31;57680;54.292;18.598;2023-07-24T05:20:47;20.22;77.11
70271;SHT31;57680;54.292;18.598;2023-07-24T05:23:12;20.04;77.04
70271;SHT31;57680;54.292;18.598;2023-07-24T05:25:38;19.87;77.97
70271;SHT31;57680;54.292;18.598;2023-07-24T05:28:03;19.88;78.63
70271;SHT31;57680;54.292;18.598;2023-07-24T05:30:28;20.04;78.81
70271;SHT31;57680;54.292;18.598;2023-07-24T05:32:54;20.08;79.08
70271;SHT31;57680;54.292;18.598;2023-07-24T05:35:19;20.20;78.53
70271;SHT31;57680;54.292;18.598;2023-07-24T05:37:45;20.14;78.17
70271;SHT31;57680;54.292;18.598;2023-07-24T05:40:10;20.10;78.30
70271;SHT31;57680;54.292;18.598;2023-07-24T05:42:35;19.97;77.93
70271;SHT31;57680;54.292;18.598;2023-07-24T05:45:01;19.91;78.46
70271;SHT31;57680;54.292;18.598;2023-07-24T05:47:26;19.85;77.79
70271;SHT31;57680;54.292;18.598;2023-07-24T05:49:51;19.77;78.29
70271;SHT31;57680;54.292;18.598;2023-07-24T05:52:17;19.66;77.83
70271;SHT31;57680;54.292;18.598;2023-07-24T05:54:42;19.74;77.81
70271;SHT31;57680;54.292;18.598;2023-07-24T05:57:07;19.80;77.65
70271;SHT31;57680;54.292;18.598;2023-07-24T05:59:33;20.02;77.11
70271;SHT31;57680;54.292;18.598;2023-07-24T06:01:58;20.45;77.66
70271;SHT31;57680;54.292;18.598;2023-07-24T06:04:23;20.26;75.64
70271;SHT31;57680;54.292;18.598;2023-07-24T06:06:49;20.18;76.37
70271;SHT31;57680;54.292;18.598;2023-07-24T06:09:14;20.08;76.85
70271;SHT31;57680;54.292;18.598;2023-07-24T06:11:39;20.00;76.73
70271;SHT31;57680;54.292;18.598;2023-07-24T06:14:05;20.02;76.66
70271;SHT31;57680;54.292;18.598;2023-07-24T06:16:30;20.10;77.20
70271;SHT31;57680;54.292;18.598;2023-07-24T06:18:55;20.51;76.64
70271;SHT31;57680;54.292;18.598;2023-07-24T06:21:21;21.31;75.79
70271;SHT31;57680;54.292;18.598;2023-07-24T06:23:46;21.89;74.54
70271;SHT31;57680;54.292;18.598;2023-07-24T06:26:11;23.11;73.15
70271;SHT31;57680;54.292;18.598;2023-07-24T06:28:37;23.92;68.10
70271;SHT31;57680;54.292;18.598;2023-07-24T06:31:02;24.35;67.64
70271;SHT31;57680;54.292;18.598;2023-07-24T06:33:27;24.31;63.91
70271;SHT31;57680;54.292;18.598;2023-07-24T06:35:53;24.30;63.69
70271;SHT31;57680;54.292;18.598;2023-07-24T06:38:18;23.89;63.35
70271;SHT31;57680;54.292;18.598;2023-07-24T06:40:43;24.11;64.36
70271;SHT31;57680;54.292;18.598;2023-07-24T06:43:09;24.83;64.05
70271;SHT31;57680;54.292;18.598;2023-07-24T06:45:34;25.19;63.03
70271;SHT31;57680;54.292;18.598;2023-07-24T06:47:59;25.51;63.50
70271;SHT31;57680;54.292;18.598;2023-07-24T06:50:25;25.36;62.07
70271;SHT31;57680;54.292;18.598;2023-07-24T06:52:50;25.07;61.93
70271;SHT31;57680;54.292;18.598;2023-07-24T06:55:16;25.19;62.34
70271;SHT31;57680;54.292;18.598;2023-07-24T06:57:41;25.05;61.80
70271;SHT31;57680;54.292;18.598;2023-07-24T07:00:07;25.09;61.48
70271;SHT31;57680;54.292;18.598;2023-07-24T07:02:32;25.73;62.37
70271;SHT31;57680;54.292;18.598;2023-07-24T07:04:58;25.97;59.47
70271;SHT31;57680;54.292;18.598;2023-07-24T07:07:23;26.32;60.09
70271;SHT31;57680;54.292;18.598;2023-07-24T07:09:48;26.60;59.84
70271;SHT31;57680;54.292;18.598;2023-07-24T07:12:13;26.11;58.52
70271;SHT31;57680;54.292;18.598;2023-07-24T07:14:39;25.12;59.34
70271;SHT31;57680;54.292;18.598;2023-07-24T07:17:04;24.52;60.36
70271;SHT31;57680;54.292;18.598;2023-07-24T07:19:29;24.20;61.27
70271;SHT31;57680;54.292;18.598;2023-07-24T07:21:55;24.13;60.58
70271;SHT31;57680;54.292;18.598;2023-07-24T07:24:20;24.30;60.93
70271;SHT31;57680;54.292;18.598;2023-07-24T07:26:45;24.52;60.13
70271;SHT31;57680;54.292;18.598;2023-07-24T07:29:11;24.78;59.82
70271;SHT31;57680;54.292;18.598;2023-07-24T07:31:36;24.71;59.72
70271;SHT31;57680;54.292;18.598;2023-07-24T07:34:01;24.64;59.66
70271;SHT31;57680;54.292;18.598;2023-07-24T07:36:27;24.80;59.53
70271;SHT31;57680;54.292;18.598;2023-07-24T07:38:52;25.22;59.04
70271;SHT31;57680;54.292;18.598;2023-07-24T07:41:17;25.22;57.97
70271;SHT31;57680;54.292;18.598;2023-07-24T07:43:42;24.85;57.90
70271;SHT31;57680;54.292;18.598;2023-07-24T07:46:08;24.69;58.56
70271;SHT31;57680;54.292;18.598;2023-07-24T07:48:33;24.42;60.15
70271;SHT31;57680;54.292;18.598;2023-07-24T07:50:58;24.22;60.73
70271;SHT31;57680;54.292;18.598;2023-07-24T07:53:24;23.97;60.77
70271;SHT31;57680;54.292;18.598;2023-07-24T07:56:00;23.86;61.15
70271;SHT31;57680;54.292;18.598;2023-07-24T07:58:25;23.92;61.92
70271;SHT31;57680;54.292;18.598;2023-07-24T08:00:51;23.90;61.32
70271;SHT31;57680;54.292;18.598;2023-07-24T08:03:16;23.76;61.24
70271;SHT31;57680;54.292;18.598;2023-07-24T08:05:41;23.48;61.59
70271;SHT31;57680;54.292;18.598;2023-07-24T08:08:07;23.59;61.88
70271;SHT31;57680;54.292;18.598;2023-07-24T08:10:32;23.97;60.84
70271;SHT31;57680;54.292;18.598;2023-07-24T08:12:57;23.70;61.70
70271;SHT31;57680;54.292;18.598;2023-07-24T08:15:23;23.69;62.02
70271;SHT31;57680;54.292;18.598;2023-07-24T08:17:48;23.86;62.62
70271;SHT31;57680;54.292;18.598;2023-07-24T08:20:14;23.93;62.01
70271;SHT31;57680;54.292;18.598;2023-07-24T08:22:39;23.86;62.60
70271;SHT31;57680;54.292;18.598;2023-07-24T08:25:04;23.69;62.77
70271;SHT31;57680;54.292;18.598;2023-07-24T08:27:30;23.43;62.51
70271;SHT31;57680;54.292;18.598;2023-07-24T08:29:55;23.28;63.51
70271;SHT31;57680;54.292;18.598;2023-07-24T08:32:21;23.37;62.63
70271;SHT31;57680;54.292;18.598;2023-07-24T08:34:46;23.43;62.51
70271;SHT31;57680;54.292;18.598;2023-07-24T08:37:12;23.58;62.13
70271;SHT31;57680;54.292;18.598;2023-07-24T08:39:37;23.71;62.02
70271;SHT31;57680;54.292;18.598;2023-07-24T08:42:12;24.13;62.50
70271;SHT31;57680;54.292;18.598;2023-07-24T08:44:38;24.92;62.08
70271;SHT31;57680;54.292;18.598;2023-07-24T08:47:04;25.27;63.03
70271;SHT31;57680;54.292;18.598;2023-07-24T08:49:32;25.84;58.33
70271;SHT31;57680;54.292;18.598;2023-07-24T08:51:57;25.75;57.44
70271;SHT31;57680;54.292;18.598;2023-07-24T08:54:24;25.51;58.92
70271;SHT31;57680;54.292;18.598;2023-07-24T08:56:52;25.38;57.57
70271;SHT31;57680;54.292;18.598;2023-07-24T08:59:17;25.40;57.41
70271;SHT31;57680;54.292;18.598;2023-07-24T09:01:43;25.17;58.30
70271;SHT31;57680;54.292;18.598;2023-07-24T09:04:08;25.40;59.48
70271;SHT31;57680;54.292;18.598;2023-07-24T09:06:34;25.41;57.81
70271;SHT31;57680;54.292;18.598;2023-07-24T09:08:59;25.88;58.78
70271;SHT31;57680;54.292;18.598;2023-07-24T09:11:24;26.12;57.45
70271;SHT31;57680;54.292;18.598;2023-07-24T09:13:50;26.38;56.00
70271;SHT31;57680;54.292;18.598;2023-07-24T09:16:24;26.29;55.74
70271;SHT31;57680;54.292;18.598;2023-07-24T09:18:49;26.38;56.67
70271;SHT31;57680;54.292;18.598;2023-07-24T09:21:15;26.56;57.64
70271;SHT31;57680;54.292;18.598;2023-07-24T09:23:40;26.60;55.91
70271;SHT31;57680;54.292;18.598;2023-07-24T09:26:06;26.55;56.06
70271;SHT31;57680;54.292;18.598;2023-07-24T09:28:32;26.08;56.19
70271;SHT31;57680;54.292;18.598;2023-07-24T09:30:58;26.15;57.48
70271;SHT31;57680;54.292;18.598;2023-07-24T09:33:34;26.28;58.00
70271;SHT31;57680;54.292;18.598;2023-07-24T09:36:01;26.45;57.30
70271;SHT31;57680;54.292;18.598;2023-07-24T09:38:27;26.72;56.85
70271;SHT31;57680;54.292;18.598;2023-07-24T09:40:53;26.76;56.12
70271;SHT31;57680;54.292;18.598;2023-07-24T09:43:23;26.59;54.46
70271;SHT31;57680;54.292;18.598;2023-07-24T09:45:50;26.47;55.02
70271;SHT31;57680;54.292;18.598;2023-07-24T09:48:17;26.73;56.29
70271;SHT31;57680;54.292;18.598;2023-07-24T09:50:45;26.67;55.81
70271;SHT31;57680;54.292;18.598;2023-07-24T09:53:38;26.82;55.54
70271;SHT31;57680;54.292;18.598;2023-07-24T09:56:05;26.67;55.02
70271;SHT31;57680;54.292;18.598;2023-07-24T09:58:35;26.83;55.41
70271;SHT31;57680;54.292;18.598;2023-07-24T10:01:08;26.76;55.68
70271;SHT31;57680;54.292;18.598;2023-07-24T10:03:45;26.91;54.69
70271;SHT31;57680;54.292;18.598;2023-07-24T10:06:11;26.91;53.99
70271;SHT31;57680;54.292;18.598;2023-07-24T10:08:38;27.10;54.61
70271;SHT31;57680;54.292;18.598;2023-07-24T10:11:04;27.07;53.94
70271;SHT31;57680;54.292;18.598;2023-07-24T10:13:29;26.88;53.16
70271;SHT31;57680;54.292;18.598;2023-07-24T10:15:56;26.90;53.97
70271;SHT31;57680;54.292;18.598;2023-07-24T10:18:28;26.66;54.84
70271;SHT31;57680;54.292;18.598;2023-07-24T10:23:26;26.93;54.42
70271;SHT31;57680;54.292;18.598;2023-07-24T10:25:52;27.04;54.95
70271;SHT31;57680;54.292;18.598;2023-07-24T10:28:18;27.21;55.02
70271;SHT31;57680;54.292;18.598;2023-07-24T10:30:44;27.06;54.75
70271;SHT31;57680;54.292;18.598;2023-07-24T10:35:49;27.15;54.00
70271;SHT31;57680;54.292;18.598;2023-07-24T10:38:17;27.17;54.36
70271;SHT31;57680;54.292;18.598;2023-07-24T10:40:44;27.23;55.96
70271;SHT31;57680;54.292;18.598;2023-07-24T10:43:11;27.14;54.41
70271;SHT31;57680;54.292;18.598;2023-07-24T10:45:49;27.15;54.87
70271;SHT31;57680;54.292;18.598;2023-07-24T10:48:17;27.44;54.76
70271;SHT31;57680;54.292;18.598;2023-07-24T10:50:44;27.42;54.47
70271;SHT31;57680;54.292;18.598;2023-07-24T10:53:16;27.20;54.72
70271;SHT31;57680;54.292;18.598;2023-07-24T10:55:46;27.34;54.15
70271;SHT31;57680;54.292;18.598;2023-07-24T10:58:12;27.00;54.77
70271;SHT31;57680;54.292;18.598;2023-07-24T11:00:39;27.58;55.00
70271;SHT31;57680;54.292;18.598;2023-07-24T11:03:05;27.31;54.71
70271;SHT31;57680;54.292;18.598;2023-07-24T11:05:32;26.96;54.16
70271;SHT31;57680;54.292;18.598;2023-07-24T11:07:58;27.25;55.76
70271;SHT31;57680;54.292;18.598;2023-07-24T11:10:23;27.75;54.02
70271;SHT31;57680;54.292;18.598;2023-07-24T11:12:48;27.90;54.60
70271;SHT31;57680;54.292;18.598;2023-07-24T11:15:14;27.54;53.36
70271;SHT31;57680;54.292;18.598;2023-07-24T11:17:41;27.61;54.39
70271;SHT31;57680;54.292;18.598;2023-07-24T11:20:11;27.33;52.52
70271;SHT31;57680;54.292;18.598;2023-07-24T11:22:41;27.04;54.05
70271;SHT31;57680;54.292;18.598;2023-07-24T11:25:08;26.94;54.57
70271;SHT31;57680;54.292;18.598;2023-07-24T11:27:38;26.94;55.13
70271;SHT31;57680;54.292;18.598;2023-07-24T11:30:04;27.20;54.81
70271;SHT31;57680;54.292;18.598;2023-07-24T11:32:29;27.25;54.48
70271;SHT31;57680;54.292;18.598;2023-07-24T11:34:56;26.98;53.58
70271;SHT31;57680;54.292;18.598;2023-07-24T11:37:21;27.08;54.92
70271;SHT31;57680;54.292;18.598;2023-07-24T11:39:59;26.79;56.19
70271;SHT31;57680;54.292;18.598;2023-07-24T11:42:26;26.45;56.41
70271;SHT31;57680;54.292;18.598;2023-07-24T11:44:53;25.99;57.20
70271;SHT31;57680;54.292;18.598;2023-07-24T11:47:18;25.64;58.08
70271;SHT31;57680;54.292;18.598;2023-07-24T11:49:44;25.40;57.81
70271;SHT31;57680;54.292;18.598;2023-07-24T11:52:09;25.46;57.99
70271;SHT31;57680;54.292;18.598;2023-07-24T11:54:34;25.81;57.78
70271;SHT31;57680;54.292;18.598;2023-07-24T11:57:00;26.49;56.44
70271;SHT31;57680;54.292;18.598;2023-07-24T11:59:26;26.83;55.73
70271;SHT31;57680;54.292;18.598;2023-07-24T12:01:51;26.76;55.11
70271;SHT31;57680;54.292;18.598;2023-07-24T12:04:17;26.67;55.46
70271;SHT31;57680;54.292;18.598;2023-07-24T12:06:43;26.50;55.24
70271;SHT31;57680;54.292;18.598;2023-07-24T12:09:08;26.52;55.85
70271;SHT31;57680;54.292;18.598;2023-07-24T12:11:43;26.45;55.05
70271;SHT31;57680;54.292;18.598;2023-07-24T12:14:08;26.45;54.83
70271;SHT31;57680;54.292;18.598;2023-07-24T12:16:35;26.55;55.51
70271;SHT31;57680;54.292;18.598;2023-07-24T12:19:00;26.42;54.32
70271;SHT31;57680;54.292;18.598;2023-07-24T12:21:26;26.33;54.66
70271;SHT31;57680;54.292;18.598;2023-07-24T12:23:51;26.59;55.02
70271;SHT31;57680;54.292;18.598;2023-07-24T12:26:16;27.18;55.23
70271;SHT31;57680;54.292;18.598;2023-07-24T12:28:42;27.45;54.10
70271;SHT31;57680;54.292;18.598;2023-07-24T12:31:07;27.68;52.54
70271;SHT31;57680;54.292;18.598;2023-07-24T12:33:32;27.51;52.03
70271;SHT31;57680;54.292;18.598;2023-07-24T12:35:57;27.37;51.96
70271;SHT31;57680;54.292;18.598;2023-07-24T12:38:23;27.11;52.28
70271;SHT31;57680;54.292;18.598;2023-07-24T12:40:48;27.28;51.58
70271;SHT31;57680;54.292;18.598;2023-07-24T12:43:15;27.38;52.54
70271;SHT31;57680;54.292;18.598;2023-07-24T12:45:40;27.21;51.50
70271;SHT31;57680;54.292;18.598;2023-07-24T12:48:05;27.12;52.73
70271;SHT31;57680;54.292;18.598;2023-07-24T12:50:31;27.12;53.00
70271;SHT31;57680;54.292;18.598;2023-07-24T12:52:56;27.31;53.17
70271;SHT31;57680;54.292;18.598;2023-07-24T12:55:22;27.27;52.99
70271;SHT31;57680;54.292;18.598;2023-07-24T12:57:47;27.01;53.61
70271;SHT31;57680;54.292;18.598;2023-07-24T13:00:13;27.15;53.88
70271;SHT31;57680;54.292;18.598;2023-07-24T13:02:38;27.27;53.42
70271;SHT31;57680;54.292;18.598;2023-07-24T13:05:04;27.31;53.28
70271;SHT31;57680;54.292;18.598;2023-07-24T13:07:29;27.04;52.23
70271;SHT31;57680;54.292;18.598;2023-07-24T13:09:55;27.17;52.64
70271;SHT31;57680;54.292;18.598;2023-07-24T13:12:20;27.12;52.76
70271;SHT31;57680;54.292;18.598;2023-07-24T13:14:46;26.98;52.41
70271;SHT31;57680;54.292;18.598;2023-07-24T13:17:11;27.00;52.61
70271;SHT31;57680;54.292;18.598;2023-07-24T13:19:37;27.00;53.31
70271;SHT31;57680;54.292;18.598;2023-07-24T13:22:03;26.88;52.93
70271;SHT31;57680;54.292;18.598;2023-07-24T13:24:28;26.93;54.04
70271;SHT31;57680;54.292;18.598;2023-07-24T13:26:54;27.01;54.86
70271;SHT31;57680;54.292;18.598;2023-07-24T13:29:19;27.12;53.19
70271;SHT31;57680;54.292;18.598;2023-07-24T13:31:45;27.04;53.04
70271;SHT31;57680;54.292;18.598;2023-07-24T13:34:10;26.91;53.61
70271;SHT31;57680;54.292;18.598;2023-07-24T13:36:36;26.76;53.84
70271;SHT31;57680;54.292;18.598;2023-07-24T13:39:02;26.59;54.17
70271;SHT31;57680;54.292;18.598;2023-07-24T13:41:27;26.66;55.17
70271;SHT31;57680;54.292;18.598;2023-07-24T13:43:53;26.67;53.75
70271;SHT31;57680;54.292;18.598;2023-07-24T13:46:18;26.80;53.60
70271;SHT31;57680;54.292;18.598;2023-07-24T13:48:43;26.75;52.70
70271;SHT31;57680;54.292;18.598;2023-07-24T13:51:09;27.01;53.21
70271;SHT31;57680;54.292;18.598;2023-07-24T13:53:34;27.14;51.66
70271;SHT31;57680;54.292;18.598;2023-07-24T13:55:59;27.25;52.46
70271;SHT31;57680;54.292;18.598;2023-07-24T13:58:25;27.18;52.39
70271;SHT31;57680;54.292;18.598;2023-07-24T14:00:50;27.00;51.73
70271;SHT31;57680;54.292;18.598;2023-07-24T14:03:15;26.93;53.06
70271;SHT31;57680;54.292;18.598;2023-07-24T14:05:41;26.91;53.09
70271;SHT31;57680;54.292;18.598;2023-07-24T14:08:06;26.87;52.76
70271;SHT31;57680;54.292;18.598;2023-07-24T14:10:32;26.79;53.38
70271;SHT31;57680;54.292;18.598;2023-07-24T14:12:57;26.80;52.97
70271;SHT31;57680;54.292;18.598;2023-07-24T14:15:23;26.84;53.03
70271;SHT31;57680;54.292;18.598;2023-07-24T14:17:48;26.86;53.22
70271;SHT31;57680;54.292;18.598;2023-07-24T14:20:14;26.90;53.81
70271;SHT31;57680;54.292;18.598;2023-07-24T14:22:39;27.01;52.60
70271;SHT31;57680;54.292;18.598;2023-07-24T14:25:05;26.98;53.72
70271;SHT31;57680;54.292;18.598;2023-07-24T14:27:30;26.94;53.02
70271;SHT31;57680;54.292;18.598;2023-07-24T14:29:56;27.07;52.78
70271;SHT31;57680;54.292;18.598;2023-07-24T14:32:21;27.15;53.25
70271;SHT31;57680;54.292;18.598;2023-07-24T14:34:50;27.24;53.45
70271;SHT31;57680;54.292;18.598;2023-07-24T14:37:16;27.27;51.89
70271;SHT31;57680;54.292;18.598;2023-07-24T14:39:41;27.15;52.52
70271;SHT31;57680;54.292;18.598;2023-07-24T14:42:07;27.06;53.25
70271;SHT31;57680;54.292;18.598;2023-07-24T14:44:32;26.97;52.07
70271;SHT31;57680;54.292;18.598;2023-07-24T14:46:57;26.86;52.84
70271;SHT31;57680;54.292;18.598;2023-07-24T14:49:23;26.84;52.98
70271;SHT31;57680;54.292;18.598;2023-07-24T14:51:48;26.75;52.51
70271;SHT31;57680;54.292;18.598;2023-07-24T14:54:13;26.75;52.80
70271;SHT31;57680;54.292;18.598;2023-07-24T14:56:39;26.64;52.65
70271;SHT31;57680;54.292;18.598;2023-07-24T14:59:04;26.50;53.46
70271;SHT31;57680;54.292;18.598;2023-07-24T15:01:29;26.50;52.78
70271;SHT31;57680;54.292;18.598;2023-07-24T15:03:58;26.45;52.64
70271;SHT31;57680;54.292;18.598;2023-07-24T15:06:23;26.50;52.36
70271;SHT31;57680;54.292;18.598;2023-07-24T15:08:50;26.60;52.57
70271;SHT31;57680;54.292;18.598;2023-07-24T15:11:15;26.76;51.96
70271;SHT31;57680;54.292;18.598;2023-07-24T15:13:40;26.87;51.88